Time;durP1;ratioP1;P1;durP2;ratioP2;P2;SDS_P1;SDS_P2;PMS_P1;PMS_P2;Temp;Humidity;BMP_temperature;BMP_pressure;BME280_temperature;BME280_humidity;BME280_pressure;Samples;Min_cycle;Max_cycle;Signal;HPM_P1;HPM_P2
2022/05/16 00:00:57;;;;;;;12.98;6.43;;;18.40;95.70;;;;;;5010314;28;20045;-80
2022/05/16 00:03:28;;;;;;;12.05;5.82;;;18.50;95.80;;;;;;5007916;28;20038;-80
2022/05/16 00:05:55;;;;;;;10.10;5.85;;;18.60;95.80;;;;;;5011461;28;20545;-79
2022/05/16 00:08:22;;;;;;;30.65;12.57;;;18.70;96.00;;;;;;5010540;28;20084;-77
2022/05/16 00:10:50;;;;;;;15.73;7.90;;;18.90;96.40;;;;;;5006070;28;20480;-79
2022/05/16 00:13:18;;;;;;;12.95;6.47;;;18.90;95.90;;;;;;5010136;28;20124;-79
2022/05/16 00:15:45;;;;;;;13.52;6.22;;;18.80;95.50;;;;;;5011349;28;20124;-79
2022/05/16 00:18:12;;;;;;;12.57;5.07;;;18.70;95.50;;;;;;5010146;28;20057;-78
2022/05/16 00:20:40;;;;;;;14.27;7.55;;;18.70;95.60;;;;;;5011526;28;20092;-79
2022/05/16 00:23:07;;;;;;;12.40;7.47;;;18.70;95.70;;;;;;5011554;28;20068;-78
2022/05/16 00:25:34;;;;;;;9.85;5.60;;;18.80;96.20;;;;;;5009923;28;20042;-80
2022/05/16 00:28:03;;;;;;;10.77;5.50;;;18.80;96.50;;;;;;5011241;28;20450;-78
2022/05/16 00:30:30;;;;;;;10.40;4.75;;;18.50;97.40;;;;;;5011363;28;20048;-80
2022/05/16 00:32:58;;;;;;;11.93;5.40;;;18.50;97.80;;;;;;4991413;28;20767;-79
2022/05/16 00:35:26;;;;;;;11.02;5.30;;;18.50;98.30;;;;;;5010998;28;20049;-80
2022/05/16 00:37:53;;;;;;;10.00;5.13;;;18.70;98.30;;;;;;5011428;28;20140;-79
2022/05/16 00:40:23;;;;;;;9.27;4.70;;;18.40;97.80;;;;;;5009523;28;20077;-80
2022/05/16 00:42:58;;;;;;;8.40;4.40;;;18.20;98.70;;;;;;5011231;28;20099;-80
2022/05/16 00:45:26;;;;;;;10.07;5.05;;;18.00;99.30;;;;;;5010978;28;20057;-78
2022/05/16 00:47:53;;;;;;;10.30;4.45;;;17.80;99.90;;;;;;5010139;28;20132;-80
2022/05/16 00:50:21;;;;;;;14.63;4.85;;;17.90;99.90;;;;;;5010877;28;20077;-80
2022/05/16 00:52:52;;;;;;;10.20;4.88;;;18.20;99.30;;;;;;5010531;28;20406;-80
2022/05/16 00:55:25;;;;;;;10.07;5.40;;;18.20;99.20;;;;;;5013364;28;20457;-79
2022/05/16 00:58:00;;;;;;;9.75;4.75;;;18.20;99.00;;;;;;5013425;28;20108;-81
2022/05/16 01:00:31;;;;;;;9.13;4.60;;;18.00;99.30;;;;;;5014566;28;20038;-78
2022/05/16 01:06:13;;;;;;;11.13;5.53;;;18.00;99.30;;;;;;5012591;28;20495;-82
2022/05/16 01:08:43;;;;;;;8.07;5.45;;;17.70;99.70;;;;;;4994052;28;20415;-80
2022/05/16 01:11:14;;;;;;;9.48;5.00;;;17.80;99.90;;;;;;4977826;28;20054;-80
2022/05/16 01:13:41;;;;;;;9.25;5.10;;;17.60;99.90;;;;;;4993748;28;20077;-79
2022/05/16 01:16:12;;;;;;;9.07;5.32;;;17.70;99.90;;;;;;4993953;28;20407;-83
2022/05/16 01:18:39;;;;;;;8.90;5.15;;;17.40;99.90;;;;;;4993801;28;20050;-80
2022/05/16 01:21:30;;;;;;;9.60;4.93;;;17.50;99.90;;;;;;4993340;28;20069;-78
2022/05/16 01:24:12;;;;;;;15.15;5.47;;;17.20;99.90;;;;;;4993977;28;20038;-80
2022/05/16 01:26:41;;;;;;;11.48;5.93;;;17.20;99.90;;;;;;4994614;28;20069;-80
2022/05/16 01:29:09;;;;;;;9.65;5.57;;;17.30;99.90;;;;;;4994035;28;20496;-79
2022/05/16 01:31:37;;;;;;;8.82;6.22;;;17.30;99.90;;;;;;4993450;28;20042;-79
2022/05/16 01:34:05;;;;;;;6.15;4.15;;;17.40;99.90;;;;;;4993369;28;20507;-80
2022/05/16 01:36:32;;;;;;;7.35;4.13;;;17.50;99.90;;;;;;4993126;28;20504;-80
2022/05/16 01:38:59;;;;;;;7.45;4.20;;;17.40;99.90;;;;;;4994593;28;20125;-81
2022/05/16 01:41:27;;;;;;;11.35;4.28;;;17.30;99.90;;;;;;4994331;28;20062;-79
2022/05/16 01:43:57;;;;;;;9.82;4.07;;;17.40;99.90;;;;;;4993381;28;20073;-80
2022/05/16 01:46:32;;;;;;;6.80;4.05;;;17.10;99.90;;;;;;4993510;28;20077;-80
2022/05/16 01:49:00;;;;;;;7.57;4.00;;;17.10;99.90;;;;;;4977628;28;20042;-80
2022/05/16 01:51:27;;;;;;;6.35;4.00;;;17.00;99.90;;;;;;4993390;28;20062;-81
2022/05/16 01:53:55;;;;;;;10.85;4.53;;;17.10;99.90;;;;;;5007302;28;20058;-79
2022/05/16 01:56:23;;;;;;;9.15;5.75;;;17.10;99.90;;;;;;5013795;28;20066;-79
2022/05/16 01:58:50;;;;;;;9.07;5.40;;;17.10;99.90;;;;;;5012810;28;20121;-79
2022/05/16 02:01:18;;;;;;;9.85;4.38;;;17.30;99.90;;;;;;5013587;28;20142;-79
2022/05/16 02:03:47;;;;;;;12.43;4.22;;;17.30;99.90;;;;;;5013145;28;20067;-79
2022/05/16 02:06:15;;;;;;;6.15;3.63;;;17.10;99.90;;;;;;5013525;28;20131;-79
2022/05/16 02:08:43;;;;;;;6.95;3.80;;;16.90;99.90;;;;;;5012477;28;20058;-79
2022/05/16 02:11:11;;;;;;;5.55;3.47;;;16.80;99.90;;;;;;4995919;28;20078;-80
2022/05/16 02:13:41;;;;;;;8.85;4.40;;;16.90;99.90;;;;;;5012312;28;20100;-79
2022/05/16 02:16:09;;;;;;;8.25;4.20;;;16.80;99.90;;;;;;5013529;28;20069;-79
2022/05/16 02:18:37;;;;;;;6.43;3.90;;;16.80;99.90;;;;;;5013676;28;20042;-81
2022/05/16 02:26:37;;;;;;;7.47;3.70;;;16.70;99.90;;;;;;5013032;28;20053;-78
2022/05/16 02:29:04;;;;;;;8.30;3.80;;;16.80;99.90;;;;;;5013698;28;20543;-79
2022/05/16 02:31:31;;;;;;;7.30;4.85;;;16.70;99.90;;;;;;5011825;28;20116;-79
2022/05/16 02:33:59;;;;;;;9.15;4.70;;;16.80;99.90;;;;;;5013256;28;20388;-79
2022/05/16 02:36:26;;;;;;;20.05;8.70;;;16.80;99.90;;;;;;5013059;28;20046;-78
2022/05/16 02:38:54;;;;;;;11.82;6.05;;;16.70;99.90;;;;;;5011789;28;20558;-79
2022/05/16 02:41:21;;;;;;;10.13;5.43;;;16.70;99.90;;;;;;5012561;28;20077;-78
2022/05/16 02:43:48;;;;;;;7.65;4.50;;;16.80;99.90;;;;;;5011805;28;20459;-78
2022/05/16 02:46:16;;;;;;;7.45;4.35;;;16.50;99.90;;;;;;5012968;28;20073;-78
2022/05/16 02:48:43;;;;;;;7.50;4.18;;;16.50;99.90;;;;;;5012769;28;20049;-79
2022/05/16 02:51:10;;;;;;;9.57;4.68;;;16.20;99.90;;;;;;5012706;28;20518;-78
2022/05/16 02:53:38;;;;;;;9.07;4.55;;;16.40;99.90;;;;;;5012381;28;20129;-79
2022/05/16 02:56:05;;;;;;;7.10;4.38;;;16.40;99.90;;;;;;5011819;28;20447;-78
2022/05/16 02:58:32;;;;;;;11.63;5.13;;;16.20;99.90;;;;;;5012767;28;20125;-79
2022/05/16 03:01:00;;;;;;;8.63;5.03;;;16.20;99.90;;;;;;5011528;28;20103;-79
2022/05/16 03:03:27;;;;;;;11.93;4.90;;;16.20;99.90;;;;;;5012483;28;20121;-79
2022/05/16 03:05:54;;;;;;;7.97;4.53;;;16.20;99.90;;;;;;5012683;28;20462;-79
2022/05/16 03:08:27;;;;;;;9.50;4.80;;;16.20;99.90;;;;;;5011200;28;20474;-79
2022/05/16 03:10:54;;;;;;;8.63;5.60;;;15.70;99.90;;;;;;5012672;28;20053;-82
2022/05/16 03:13:24;;;;;;;9.00;4.90;;;16.00;99.90;;;;;;5327077;22;20064;-81
2022/05/16 03:19:34;;;;;;;7.03;4.20;;;16.00;99.90;;;;;;5032262;28;20030;-80
2022/05/16 03:22:15;;;;;;;7.85;4.32;;;15.90;99.90;;;;;;5032023;28;20131;-79
2022/05/16 03:24:42;;;;;;;7.05;4.15;;;16.20;99.90;;;;;;5032263;28;20120;-80
2022/05/16 03:27:10;;;;;;;8.73;4.47;;;16.30;99.90;;;;;;5030732;28;20422;-80
2022/05/16 03:29:38;;;;;;;7.35;4.43;;;16.20;99.90;;;;;;5032035;28;20033;-82
2022/05/16 03:32:06;;;;;;;7.88;4.50;;;16.30;99.90;;;;;;5030683;28;20441;-81
2022/05/16 03:34:34;;;;;;;10.48;4.35;;;16.30;99.90;;;;;;5030451;28;20052;-80
2022/05/16 03:37:02;;;;;;;19.77;8.35;;;15.80;99.90;;;;;;5031669;28;20603;-80
2022/05/16 03:42:15;;;;;;;10.40;5.13;;;15.70;99.90;;;;;;5030170;28;20045;-79
2022/05/16 03:44:42;;;;;;;8.30;4.32;;;16.00;99.90;;;;;;5030632;28;20123;-80
2022/05/16 03:47:10;;;;;;;8.43;4.70;;;16.10;99.90;;;;;;5030427;28;20494;-80
2022/05/16 03:49:38;;;;;;;7.47;4.88;;;16.20;99.90;;;;;;5031263;28;20091;-80
2022/05/16 03:52:05;;;;;;;8.40;4.70;;;16.40;99.90;;;;;;5013970;28;20095;-80
2022/05/16 03:54:33;;;;;;;9.20;4.05;;;16.30;99.90;;;;;;5030926;28;20454;-80
2022/05/16 03:57:00;;;;;;;8.27;5.05;;;16.40;99.90;;;;;;5030043;28;20073;-79
2022/05/16 03:59:27;;;;;;;28.42;14.32;;;16.30;99.90;;;;;;5031776;28;20128;-80
2022/05/16 04:01:55;;;;;;;41.55;20.50;;;16.40;99.90;;;;;;5030052;28;20107;-80
2022/05/16 04:04:22;;;;;;;23.55;11.90;;;16.30;99.90;;;;;;5030916;28;20072;-79
2022/05/16 04:06:49;;;;;;;11.90;6.55;;;16.40;99.90;;;;;;5031013;28;20045;-80
2022/05/16 04:09:17;;;;;;;11.07;6.30;;;16.50;99.90;;;;;;5030434;28;20497;-78
2022/05/16 04:11:44;;;;;;;9.63;4.93;;;16.50;99.90;;;;;;5029849;28;20632;-79
2022/05/16 04:14:12;;;;;;;9.30;4.47;;;16.40;99.90;;;;;;5029511;28;20069;-78
2022/05/16 04:16:39;;;;;;;8.07;4.65;;;16.40;99.90;;;;;;5031428;28;20069;-77
2022/05/16 04:19:09;;;;;;;9.82;4.90;;;16.50;99.90;;;;;;5031370;28;20037;-77
2022/05/16 04:21:38;;;;;;;9.18;4.50;;;16.60;99.90;;;;;;5029932;28;20137;-79
2022/05/16 04:24:06;;;;;;;9.25;5.05;;;16.70;99.90;;;;;;5031168;28;20045;-80
2022/05/16 04:26:34;;;;;;;10.05;4.63;;;16.80;99.90;;;;;;5029942;28;20692;-77
2022/05/16 04:29:03;;;;;;;9.23;5.55;;;16.80;99.90;;;;;;5035109;28;20037;-77
2022/05/16 04:31:30;;;;;;;19.00;6.07;;;16.90;99.90;;;;;;5035182;28;20091;-78
2022/05/16 04:33:57;;;;;;;10.63;5.25;;;16.80;99.90;;;;;;5035025;28;20037;-79
2022/05/16 04:36:25;;;;;;;10.07;6.30;;;16.70;99.90;;;;;;5033780;28;20041;-77
2022/05/16 04:38:52;;;;;;;46.35;28.48;;;16.70;99.90;;;;;;5033699;28;20557;-79
2022/05/16 04:44:09;;;;;;;24.48;14.35;;;17.00;99.90;;;;;;5054559;28;20071;-81
2022/05/16 04:46:36;;;;;;;17.67;10.70;;;17.00;99.90;;;;;;5054904;28;20382;-79
2022/05/16 04:49:04;;;;;;;11.68;6.85;;;17.20;99.90;;;;;;5054195;28;20044;-82
2022/05/16 04:51:32;;;;;;;12.63;6.65;;;17.20;99.90;;;;;;5044233;28;20048;-80
2022/05/16 04:54:00;;;;;;;13.15;6.68;;;17.20;99.90;;;;;;5043609;28;20065;-82
2022/05/16 04:56:27;;;;;;;12.88;6.95;;;17.20;99.90;;;;;;5034932;28;20041;-79
2022/05/16 04:58:55;;;;;;;10.68;5.60;;;17.20;99.90;;;;;;5034272;28;20045;-81
2022/05/16 05:01:24;;;;;;;12.02;5.97;;;17.30;99.90;;;;;;5048888;28;20142;-81
2022/05/16 05:03:51;;;;;;;12.38;5.47;;;17.30;99.90;;;;;;5054120;28;20056;-80
2022/05/16 05:06:20;;;;;;;11.55;5.47;;;17.30;99.90;;;;;;5053314;28;20047;-80
2022/05/16 05:08:47;;;;;;;10.10;5.32;;;17.50;99.90;;;;;;5054344;28;20070;-79
2022/05/16 05:16:46;;;;;;;30.23;17.10;;;17.30;99.90;;;;;;5053994;28;20048;-78
2022/05/16 05:19:13;;;;;;;104.22;68.28;;;17.40;99.90;;;;;;5054142;28;20139;-77
2022/05/16 05:21:41;;;;;;;404.63;260.30;;;17.50;99.90;;;;;;5052758;28;20127;-78
2022/05/16 05:24:08;;;;;;;30.20;22.80;;;17.50;99.90;;;;;;5054191;28;20102;-78
2022/05/16 05:26:36;;;;;;;17.10;10.05;;;17.60;99.90;;;;;;5053962;28;20040;-80
2022/05/16 05:29:04;;;;;;;17.92;9.65;;;17.70;99.90;;;;;;5053478;28;20099;-79
2022/05/16 05:31:31;;;;;;;16.70;8.50;;;17.80;99.90;;;;;;5053845;28;20068;-80
2022/05/16 05:33:59;;;;;;;15.20;8.23;;;17.80;99.90;;;;;;5053433;28;20167;-79
2022/05/16 05:36:27;;;;;;;16.17;7.80;;;17.80;99.90;;;;;;5053864;28;20059;-78
2022/05/16 05:38:54;;;;;;;12.10;7.72;;;18.10;99.90;;;;;;5051397;28;20049;-79
2022/05/16 05:41:22;;;;;;;8.82;5.82;;;18.20;99.90;;;;;;5053907;28;20418;-85
2022/05/16 05:43:49;;;;;;;14.05;8.35;;;17.90;99.90;;;;;;5053542;28;20114;-81
2022/05/16 05:46:17;;;;;;;13.02;7.22;;;17.90;99.90;;;;;;5052102;28;20437;-81
2022/05/16 05:48:45;;;;;;;10.43;6.90;;;17.70;99.90;;;;;;5053523;28;20037;-83
2022/05/16 05:51:14;;;;;;;16.27;7.47;;;17.90;99.90;;;;;;5052151;28;20052;-83
2022/05/16 05:53:43;;;;;;;13.95;7.30;;;18.10;99.90;;;;;;5030495;28;20517;-84
2022/05/16 05:56:12;;;;;;;13.15;6.38;;;18.00;99.90;;;;;;5048300;28;20125;-80
2022/05/16 05:58:41;;;;;;;12.93;6.53;;;18.20;99.90;;;;;;5053891;28;20048;-84
2022/05/16 06:01:08;;;;;;;12.27;6.40;;;18.30;99.90;;;;;;5053581;28;20450;-83
2022/05/16 06:03:36;;;;;;;9.52;6.25;;;18.50;99.90;;;;;;5053382;28;20116;-83
2022/05/16 06:06:04;;;;;;;11.63;5.95;;;18.50;99.90;;;;;;5052016;28;20540;-81
2022/05/16 06:08:31;;;;;;;9.20;5.60;;;18.60;99.90;;;;;;5053068;28;20041;-78
2022/05/16 06:11:00;;;;;;;10.10;5.32;;;18.60;99.90;;;;;;5053293;28;20571;-76
2022/05/16 06:13:29;;;;;;;12.88;5.38;;;18.30;99.90;;;;;;5053306;28;20557;-79
2022/05/16 06:16:00;;;;;;;11.55;5.28;;;18.40;99.90;;;;;;5053091;28;20072;-82
2022/05/16 06:18:29;;;;;;;19.67;5.15;;;18.60;99.90;;;;;;5052053;28;20041;-78
2022/05/16 06:20:57;;;;;;;12.35;5.55;;;18.70;99.90;;;;;;5052253;28;20041;-78
2022/05/16 06:23:24;;;;;;;7.28;4.80;;;18.70;99.90;;;;;;5053272;28;20067;-79
2022/05/16 06:25:53;;;;;;;10.63;5.05;;;18.70;99.90;;;;;;5035688;28;20099;-80
2022/05/16 06:28:27;;;;;;;9.65;5.03;;;18.40;99.90;;;;;;5051251;28;20095;-78
2022/05/16 06:30:56;;;;;;;8.70;5.63;;;18.40;99.90;;;;;;5052734;28;20547;-80
2022/05/16 06:33:28;;;;;;;8.98;5.95;;;18.40;99.90;;;;;;5053131;28;20037;-79
2022/05/16 06:35:57;;;;;;;11.77;5.50;;;18.50;99.90;;;;;;5051368;28;20045;-80
2022/05/16 06:38:28;;;;;;;14.25;5.88;;;18.60;99.80;;;;;;5034829;28;20151;-79
2022/05/16 06:40:57;;;;;;;10.68;5.63;;;18.60;99.30;;;;;;5052620;28;20479;-84
2022/05/16 06:43:34;;;;;;;14.23;6.70;;;18.70;99.70;;;;;;5035144;28;20037;-79
2022/05/16 06:46:03;;;;;;;14.88;6.57;;;18.70;99.50;;;;;;5051397;28;20127;-77
2022/05/16 06:48:30;;;;;;;14.18;6.55;;;18.70;99.20;;;;;;5051901;28;20044;-78
2022/05/16 06:50:58;;;;;;;13.23;7.03;;;18.70;98.70;;;;;;5052647;28;20380;-79
2022/05/16 06:53:30;;;;;;;14.15;7.03;;;18.70;99.00;;;;;;5033475;28;20465;-79
2022/05/16 06:55:58;;;;;;;11.50;6.90;;;18.90;98.70;;;;;;5014653;28;20209;-79
2022/05/16 06:58:26;;;;;;;14.55;7.43;;;18.90;99.00;;;;;;5032434;28;20096;-79
2022/05/16 07:00:54;;;;;;;13.25;6.55;;;19.20;99.00;;;;;;5031922;28;20075;-79
2022/05/16 07:03:22;;;;;;;13.55;7.35;;;19.20;98.50;;;;;;5030639;28;20041;-81
2022/05/16 07:05:51;;;;;;;13.18;8.32;;;19.30;98.40;;;;;;5014748;28;20499;-79
2022/05/16 07:09:13;;;;;;;15.60;6.70;;;19.10;98.20;;;;;;5032186;28;20418;-79
2022/05/16 07:11:44;;;;;;;14.32;5.93;;;19.10;97.20;;;;;;5030530;28;20045;-81
2022/05/16 07:14:25;;;;;;;14.00;6.05;;;19.20;97.60;;;;;;5012096;28;20503;-79
2022/05/16 07:16:52;;;;;;;9.07;5.60;;;19.40;97.90;;;;;;5030150;28;20076;-80
2022/05/16 07:19:20;;;;;;;13.27;5.45;;;19.30;97.70;;;;;;5032029;28;20041;-79
2022/05/16 07:21:49;;;;;;;10.05;5.50;;;19.40;97.50;;;;;;5030926;28;20053;-79
2022/05/16 07:24:17;;;;;;;8.60;4.50;;;19.40;97.60;;;;;;5030925;28;20399;-78
2022/05/16 07:29:31;;;;;;;9.65;4.93;;;19.50;98.10;;;;;;5031236;28;20042;-79
2022/05/16 07:32:02;;;;;;;10.13;6.28;;;19.60;97.20;;;;;;5014439;28;20486;-80
2022/05/16 07:34:29;;;;;;;12.27;5.25;;;19.60;97.40;;;;;;5030507;28;20132;-80
2022/05/16 07:36:56;;;;;;;9.68;4.82;;;19.60;96.90;;;;;;5029942;28;20056;-79
2022/05/16 07:39:25;;;;;;;9.82;5.45;;;19.80;96.30;;;;;;5014004;28;20045;-80
2022/05/16 07:41:54;;;;;;;14.15;5.43;;;19.90;97.10;;;;;;5030174;28;20053;-81
2022/05/16 07:44:21;;;;;;;8.43;4.78;;;20.00;96.20;;;;;;5030339;28;20053;-82
2022/05/16 07:46:49;;;;;;;9.77;4.60;;;20.20;95.40;;;;;;5031227;28;20502;-80
2022/05/16 07:49:18;;;;;;;8.07;4.90;;;20.10;94.40;;;;;;5031543;28;20403;-79
2022/05/16 07:51:45;;;;;;;9.40;4.80;;;20.20;94.30;;;;;;5031152;28;20042;-79
2022/05/16 07:54:12;;;;;;;9.27;5.03;;;20.30;94.80;;;;;;5030246;28;20048;-81
2022/05/16 07:56:43;;;;;;;8.85;4.72;;;20.50;95.10;;;;;;5030089;28;20100;-81
2022/05/16 07:59:11;;;;;;;7.82;4.50;;;20.60;94.20;;;;;;5031495;28;20068;-80
2022/05/16 08:01:41;;;;;;;12.98;5.32;;;20.80;93.90;;;;;;5030494;28;20049;-78
2022/05/16 08:04:09;;;;;;;9.73;4.90;;;20.80;93.30;;;;;;5031379;28;20045;-80
2022/05/16 08:06:46;;;;;;;7.65;4.63;;;20.70;93.50;;;;;;5030088;28;20045;-78
2022/05/16 08:11:59;;;;;;;9.32;4.47;;;20.90;93.00;;;;;;5030954;28;20076;-79
2022/05/16 08:14:29;;;;;;;8.63;4.53;;;20.90;92.50;;;;;;5030123;28;20532;-81
2022/05/16 08:16:56;;;;;;;10.90;4.72;;;21.00;92.30;;;;;;5030035;28;20076;-80
2022/05/16 08:19:24;;;;;;;9.25;4.72;;;21.10;92.00;;;;;;5030110;28;20041;-79
2022/05/16 08:21:51;;;;;;;10.82;4.93;;;21.00;91.20;;;;;;5029624;28;20049;-80
2022/05/16 08:24:23;;;;;;;10.15;4.78;;;21.00;91.40;;;;;;5031496;28;20112;-81
2022/05/16 08:26:51;;;;;;;8.40;4.65;;;21.00;91.60;;;;;;5029411;28;20470;-80
2022/05/16 08:29:18;;;;;;;13.85;4.25;;;21.20;90.90;;;;;;5029871;28;20107;-81
2022/05/16 08:31:46;;;;;;;9.93;4.53;;;21.20;90.70;;;;;;5029272;28;20092;-80
2022/05/16 08:34:13;;;;;;;8.85;4.53;;;21.30;90.60;;;;;;5031330;28;20407;-83
2022/05/16 08:42:12;;;;;;;8.15;4.80;;;21.30;90.10;;;;;;5030537;28;20049;-83
2022/05/16 08:44:56;;;;;;;7.78;4.25;;;21.30;88.50;;;;;;5030674;28;20042;-83
2022/05/16 08:47:32;;;;;;;11.65;4.60;;;21.60;89.70;;;;;;5030610;28;20046;-84
2022/05/16 08:50:09;;;;;;;14.68;6.28;;;21.70;88.90;;;;;;5031054;28;20113;-84
2022/05/16 08:53:08;;;;;;;9.10;5.10;;;21.80;88.00;;;;;;5030462;28;20434;-82
2022/05/16 08:55:49;;;;;;;9.52;5.00;;;21.70;85.80;;;;;;5018301;28;20176;-79
2022/05/16 08:58:55;;;;;;;8.82;4.82;;;21.90;81.80;;;;;;5022170;28;20049;-83
2022/05/16 09:01:32;;;;;;;5.63;3.28;;;22.00;80.30;;;;;;5028511;28;20050;-79
2022/05/16 09:04:04;;;;;;;8.50;4.15;;;21.90;77.10;;;;;;5013519;28;20049;-83
2022/05/16 09:06:38;;;;;;;8.05;3.50;;;22.00;76.80;;;;;;5029152;28;20065;-82
2022/05/16 09:09:16;;;;;;;8.15;4.00;;;22.10;76.70;;;;;;5029665;28;20057;-84
2022/05/16 09:11:52;;;;;;;10.98;3.67;;;22.30;76.60;;;;;;5013000;28;20095;-80
2022/05/16 09:14:48;;;;;;;12.38;3.83;;;22.40;74.80;;;;;;5013861;28;20084;-79
2022/05/16 09:17:21;;;;;;;7.43;3.60;;;22.70;75.30;;;;;;5032547;28;20119;-77
2022/05/16 09:20:12;;;;;;;8.52;4.93;;;23.00;76.30;;;;;;5031964;28;20513;-78
2022/05/16 09:22:58;;;;;;;8.85;4.10;;;23.10;76.80;;;;;;5032945;28;20099;-81
2022/05/16 09:25:38;;;;;;;8.60;3.40;;;23.20;76.40;;;;;;5033077;28;20375;-77
2022/05/16 09:30:58;;;;;;;11.50;3.67;;;23.30;76.00;;;;;;5032795;28;20041;-78
2022/05/16 09:33:29;;;;;;;9.82;3.10;;;23.50;75.30;;;;;;5032861;28;20121;-79
2022/05/16 09:36:06;;;;;;;18.60;4.07;;;23.70;73.90;;;;;;5033375;28;20107;-77
2022/05/16 09:38:33;;;;;;;9.93;3.85;;;23.60;74.70;;;;;;5032478;28;20045;-77
2022/05/16 09:41:08;;;;;;;13.30;3.45;;;23.60;70.30;;;;;;5033339;28;20402;-83
2022/05/16 09:43:50;;;;;;;6.82;3.15;;;23.60;72.20;;;;;;5034166;28;20124;-82
2022/05/16 09:46:32;;;;;;;6.28;3.13;;;23.40;72.20;;;;;;5032102;28;20041;-81
2022/05/16 09:49:24;;;;;;;18.02;3.38;;;23.30;74.20;;;;;;5016039;28;20107;-80
2022/05/16 09:51:54;;;;;;;8.40;3.03;;;23.50;69.80;;;;;;5031521;28;20501;-82
2022/05/16 09:54:31;;;;;;;7.03;2.90;;;23.60;69.40;;;;;;5033303;28;20418;-79
2022/05/16 09:57:09;;;;;;;7.10;2.78;;;23.70;66.70;;;;;;5031013;28;20037;-77
2022/05/16 09:59:55;;;;;;;6.03;2.63;;;23.70;66.00;;;;;;5032340;28;20459;-77
2022/05/16 10:02:30;;;;;;;15.32;2.90;;;23.90;64.50;;;;;;5052349;28;20041;-78
2022/05/16 10:05:20;;;;;;;5.65;2.40;;;24.00;64.90;;;;;;5053058;28;20455;-77
2022/05/16 10:07:57;;;;;;;6.60;2.67;;;24.20;66.50;;;;;;5047695;28;20048;-76
2022/05/16 10:10:32;;;;;;;6.93;2.65;;;24.50;63.70;;;;;;5044917;28;20469;-76
2022/05/16 10:13:00;;;;;;;7.07;3.17;;;24.70;64.80;;;;;;5030770;28;20073;-78
2022/05/16 10:15:28;;;;;;;7.45;3.00;;;24.70;65.80;;;;;;5030195;28;20784;-77
2022/05/16 10:17:57;;;;;;;5.13;2.75;;;24.50;64.80;;;;;;5029833;28;20095;-78
2022/05/16 10:20:46;;;;;;;7.00;2.97;;;24.70;64.00;;;;;;5026793;28;20045;-76
2022/05/16 10:23:27;;;;;;;6.90;2.80;;;24.70;63.00;;;;;;5031233;28;20458;-77
2022/05/16 10:25:59;;;;;;;8.70;2.92;;;24.70;62.60;;;;;;5031328;28;20297;-77
2022/05/16 10:29:01;;;;;;;7.32;3.13;;;24.50;62.70;;;;;;5031748;28;20320;-79
2022/05/16 10:35:11;;;;;;;9.45;3.22;;;24.70;61.60;;;;;;5032969;28;20124;-77
2022/05/16 10:37:44;;;;;;;6.63;3.20;;;24.70;61.30;;;;;;5030068;28;20458;-74
2022/05/16 10:40:35;;;;;;;5.93;3.08;;;24.80;61.60;;;;;;5032172;28;20041;-77
2022/05/16 10:43:33;;;;;;;7.40;3.13;;;25.00;60.20;;;;;;5032617;28;20116;-72
2022/05/16 10:46:18;;;;;;;8.00;2.90;;;25.10;60.60;;;;;;5029532;28;20088;-73
2022/05/16 10:48:52;;;;;;;6.38;2.83;;;25.30;60.00;;;;;;5023899;28;20487;-74
2022/05/16 10:51:47;;;;;;;7.10;2.50;;;25.80;61.10;;;;;;5012490;28;20065;-76
2022/05/16 10:54:25;;;;;;;9.80;3.30;;;26.00;61.80;;;;;;5003075;28;20507;-74
2022/05/16 10:57:04;;;;;;;8.18;3.35;;;25.70;61.20;;;;;;5030803;28;20076;-77
2022/05/16 10:59:37;;;;;;;6.35;2.88;;;25.60;60.60;;;;;;5031217;28;20399;-77
2022/05/16 11:02:21;;;;;;;8.75;3.08;;;26.00;62.00;;;;;;5031176;28;20124;-77
2022/05/16 11:05:19;;;;;;;10.52;3.28;;;26.10;61.20;;;;;;5032396;28;20034;-80
2022/05/16 11:08:15;;;;;;;7.80;2.67;;;25.90;59.50;;;;;;5032458;28;20064;-77
2022/05/16 11:11:03;;;;;;;7.50;2.70;;;25.80;60.30;;;;;;5015078;28;20053;-77
2022/05/16 11:13:47;;;;;;;7.45;2.72;;;26.00;59.40;;;;;;5031139;28;20037;-81
2022/05/16 11:16:26;;;;;;;8.02;3.10;;;26.30;58.80;;;;;;5031999;28;20083;-81
2022/05/16 11:19:22;;;;;;;9.07;3.23;;;26.60;60.90;;;;;;5031680;28;20056;-79
2022/05/16 11:22:35;;;;;;;7.20;2.63;;;27.00;59.50;;;;;;5031230;28;20120;-77
2022/05/16 11:25:23;;;;;;;7.85;2.90;;;27.10;59.20;;;;;;4990433;28;20499;-79
2022/05/16 11:28:03;;;;;;;7.35;3.55;;;27.00;59.60;;;;;;5031993;28;20042;-80
2022/05/16 11:30:49;;;;;;;7.20;2.55;;;26.60;59.10;;;;;;5030801;28;20410;-82
2022/05/16 11:33:45;;;;;;;13.32;3.65;;;26.80;58.30;;;;;;5031672;28;20501;-80
2022/05/16 11:36:39;;;;;;;9.10;3.80;;;26.90;58.50;;;;;;5031777;28;20140;-80
2022/05/16 11:39:17;;;;;;;10.40;3.13;;;27.10;58.50;;;;;;5030959;28;20054;-79
2022/05/16 11:42:07;;;;;;;5.00;2.95;;;27.00;58.30;;;;;;5031659;28;20426;-76
2022/05/16 11:44:53;;;;;;;8.90;3.42;;;26.80;58.20;;;;;;5014384;28;20107;-80
2022/05/16 11:47:56;;;;;;;6.55;3.30;;;26.90;58.40;;;;;;5031718;28;20509;-80
2022/05/16 11:51:03;;;;;;;5.47;2.53;;;27.10;57.60;;;;;;5031353;28;20049;-80
2022/05/16 11:53:54;;;;;;;6.22;3.30;;;27.40;56.30;;;;;;5014488;28;20692;-76
2022/05/16 12:02:15;;;;;;;6.80;2.70;;;27.60;57.40;;;;;;5031722;28;20502;-87
2022/05/16 12:04:50;;;;;;;6.82;2.78;;;27.60;55.50;;;;;;5030295;28;20495;-80
2022/05/16 12:07:40;;;;;;;12.82;3.20;;;27.80;55.60;;;;;;5031892;28;20045;-86
2022/05/16 12:10:11;;;;;;;15.83;2.97;;;28.30;56.00;;;;;;5030804;28;20131;-79
2022/05/16 12:12:41;;;;;;;6.65;2.92;;;28.30;56.40;;;;;;5030198;28;20045;-85
2022/05/16 12:15:14;;;;;;;6.50;2.92;;;28.50;54.30;;;;;;5030081;28;20144;-82
2022/05/16 12:17:52;;;;;;;6.63;3.20;;;28.50;56.10;;;;;;5030397;28;20556;-78
2022/05/16 12:21:03;;;;;;;4.65;2.38;;;28.40;55.00;;;;;;5014066;28;20136;-80
2022/05/16 12:23:52;;;;;;;5.93;3.03;;;28.70;55.20;;;;;;5031278;28;20121;-81
2022/05/16 12:26:28;;;;;;;6.95;3.15;;;29.30;55.10;;;;;;5000851;28;20064;-79
2022/05/16 12:29:08;;;;;;;5.45;2.78;;;29.30;54.70;;;;;;5014316;28;20092;-79
2022/05/16 12:31:50;;;;;;;11.15;3.33;;;29.40;54.30;;;;;;5031561;28;20103;-80
2022/05/16 12:34:29;;;;;;;5.72;2.80;;;29.30;54.20;;;;;;5031074;28;20399;-82
2022/05/16 12:36:58;;;;;;;9.85;4.00;;;29.30;51.70;;;;;;5031694;28;20450;-91
2022/05/16 12:39:38;;;;;;;7.30;2.85;;;29.40;51.80;;;;;;5032352;28;20116;-81
2022/05/16 12:42:23;;;;;;;7.50;2.92;;;29.60;52.90;;;;;;5031935;28;20042;-89
2022/05/16 12:45:19;;;;;;;4.80;2.63;;;29.40;52.80;;;;;;5030588;28;20049;-84
2022/05/16 12:48:10;;;;;;;8.98;3.47;;;29.40;51.70;;;;;;5030828;28;20072;-82
2022/05/16 12:50:49;;;;;;;9.50;3.10;;;29.00;53.70;;;;;;5004052;28;20058;-78
2022/05/16 12:53:49;;;;;;;6.85;3.08;;;29.20;54.10;;;;;;5035114;28;20048;-82
2022/05/16 12:56:32;;;;;;;10.77;3.55;;;29.40;53.30;;;;;;5034728;28;20037;-80
2022/05/16 12:59:26;;;;;;;7.85;3.40;;;29.60;54.80;;;;;;5035270;28;20125;-78
2022/05/16 13:02:08;;;;;;;13.70;3.47;;;29.60;54.20;;;;;;5033371;28;20045;-83
2022/05/16 13:05:13;;;;;;;11.68;3.80;;;29.70;54.00;;;;;;5033611;28;20041;-83
2022/05/16 13:07:47;;;;;;;6.80;3.40;;;29.90;55.20;;;;;;5033670;28;20057;-80
2022/05/16 13:10:42;;;;;;;7.00;3.22;;;30.10;54.70;;;;;;5033650;28;20048;-74
2022/05/16 13:13:38;;;;;;;5.53;2.83;;;29.90;52.70;;;;;;5016964;28;20057;-81
2022/05/16 13:16:19;;;;;;;7.20;3.30;;;30.10;52.60;;;;;;5018186;28;20068;-74
2022/05/16 13:18:54;;;;;;;12.50;3.88;;;29.70;53.40;;;;;;5034647;28;20044;-80
2022/05/16 13:21:32;;;;;;;8.00;2.92;;;29.80;53.60;;;;;;5034548;28;20465;-77
2022/05/16 13:23:59;;;;;;;7.05;2.90;;;29.80;53.50;;;;;;5034477;28;20061;-80
2022/05/16 13:29:22;;;;;;;11.45;2.92;;;30.10;54.00;;;;;;5034585;28;20029;-75
2022/05/16 13:31:55;;;;;;;5.22;2.78;;;29.90;53.90;;;;;;5016029;28;20049;-81
2022/05/16 13:34:54;;;;;;;8.15;2.85;;;30.00;53.90;;;;;;5033607;28;20038;-84
2022/05/16 13:37:25;;;;;;;5.47;2.80;;;29.70;53.70;;;;;;5007044;28;20406;-81
2022/05/16 13:40:01;;;;;;;9.18;3.47;;;29.70;52.50;;;;;;5016962;28;20038;-82
2022/05/16 13:42:33;;;;;;;7.53;3.53;;;29.70;52.10;;;;;;5033786;28;20655;-80
2022/05/16 13:45:02;;;;;;;7.32;3.30;;;29.80;53.10;;;;;;5032964;28;20073;-85
2022/05/16 13:47:32;;;;;;;7.28;3.45;;;30.20;53.40;;;;;;5033113;28;20042;-82
2022/05/16 13:49:59;;;;;;;5.72;3.10;;;30.60;53.70;;;;;;5034027;28;20095;-79
2022/05/16 13:52:37;;;;;;;6.15;3.30;;;30.40;52.30;;;;;;5033288;28;20034;-79
2022/05/16 13:55:09;;;;;;;8.90;3.28;;;30.00;51.70;;;;;;5032719;28;20092;-79
2022/05/16 13:57:37;;;;;;;5.65;2.97;;;30.20;52.30;;;;;;5015976;28;20137;-78
2022/05/16 14:00:23;;;;;;;5.90;3.03;;;30.60;53.20;;;;;;5031487;28;20119;-77
2022/05/16 14:03:03;;;;;;;7.30;3.13;;;31.00;52.20;;;;;;5032386;28;20434;-79
2022/05/16 14:05:39;;;;;;;9.00;3.30;;;30.70;51.90;;;;;;5033457;28;20060;-82